Time;durP1;ratioP1;P1;durP2;ratioP2;P2;SDS_P1;SDS_P2;PMS_P1;PMS_P2;Temp;Humidity;BMP_temperature;BMP_pressure;BME280_temperature;BME280_humidity;BME280_pressure;Samples;Min_cycle;Max_cycle;Signal;HPM_P1;HPM_P2
2022/06/06 00:02:05;;;;;;;39.78;26.95;;;15.40;87.10;;;;;;5003806;28;20209;-77
2022/06/06 00:04:31;;;;;;;39.53;26.48;;;15.30;86.80;;;;;;5006172;28;20037;-77
2022/06/06 00:06:58;;;;;;;42.45;27.45;;;15.20;86.40;;;;;;5008694;28;20072;-78
2022/06/06 00:09:25;;;;;;;37.80;26.08;;;15.10;86.40;;;;;;5006613;28;20038;-77
2022/06/06 00:11:51;;;;;;;39.33;25.98;;;15.10;86.40;;;;;;5012372;28;20037;-77
2022/06/06 00:14:18;;;;;;;40.78;26.95;;;15.10;86.30;;;;;;5005727;28;20125;-77
2022/06/06 00:16:44;;;;;;;36.72;26.77;;;15.10;86.40;;;;;;5016359;28;20113;-77
2022/06/06 00:19:11;;;;;;;38.05;25.92;;;15.10;86.40;;;;;;5016349;28;20037;-77
2022/06/06 00:21:39;;;;;;;39.97;27.63;;;15.10;86.50;;;;;;5014253;28;20085;-77
2022/06/06 00:24:06;;;;;;;38.13;27.17;;;15.10;86.30;;;;;;5013988;28;20042;-77
2022/06/06 00:26:33;;;;;;;38.40;27.15;;;15.10;86.10;;;;;;5015861;28;20042;-77
2022/06/06 00:28:59;;;;;;;37.75;27.27;;;15.10;86.30;;;;;;5006433;28;20044;-78
2022/06/06 00:36:56;;;;;;;34.03;23.23;;;15.10;86.20;;;;;;5009483;28;20042;-77
2022/06/06 00:39:21;;;;;;;34.75;24.52;;;15.00;85.90;;;;;;5010020;28;20053;-78
2022/06/06 00:41:49;;;;;;;36.08;24.52;;;15.00;85.90;;;;;;5003508;28;20842;-77
2022/06/06 00:44:21;;;;;;;32.92;23.63;;;14.90;85.80;;;;;;5000446;28;20077;-77
2022/06/06 00:47:13;;;;;;;36.45;23.48;;;14.90;86.00;;;;;;5002127;28;20077;-77
2022/06/06 00:49:50;;;;;;;32.60;23.20;;;14.80;86.20;;;;;;5001512;28;20053;-78
2022/06/06 00:52:29;;;;;;;31.45;21.80;;;14.80;86.30;;;;;;5012057;28;20037;-77
2022/06/06 00:55:00;;;;;;;28.75;20.90;;;14.80;86.30;;;;;;5005904;28;20558;-78
2022/06/06 00:57:35;;;;;;;28.75;20.83;;;14.70;86.10;;;;;;5016144;28;20462;-77
2022/06/06 01:00:14;;;;;;;28.70;18.58;;;14.60;86.10;;;;;;5004510;28;20049;-77
2022/06/06 01:02:41;;;;;;;24.75;17.55;;;14.60;86.00;;;;;;5005338;28;20038;-77
2022/06/06 01:05:08;;;;;;;24.65;17.48;;;14.50;86.30;;;;;;5009568;28;20558;-78
2022/06/06 01:07:34;;;;;;;21.95;16.90;;;14.50;86.00;;;;;;5005271;28;20073;-78
2022/06/06 01:10:00;;;;;;;26.83;17.48;;;14.40;85.90;;;;;;5006465;28;20128;-77
2022/06/06 01:12:28;;;;;;;24.67;15.68;;;14.40;85.80;;;;;;5006578;28;20033;-77
2022/06/06 01:14:57;;;;;;;19.17;14.45;;;14.30;86.00;;;;;;5013183;28;20525;-77
2022/06/06 01:17:50;;;;;;;22.42;14.95;;;14.30;86.00;;;;;;5002267;28;20136;-77
2022/06/06 01:20:34;;;;;;;24.48;14.98;;;14.30;86.00;;;;;;5003167;28;20103;-77
2022/06/06 01:23:47;;;;;;;26.75;15.32;;;14.20;86.30;;;;;;5000884;28;20064;-77
2022/06/06 01:26:32;;;;;;;20.95;14.80;;;14.20;86.30;;;;;;4997637;28;20050;-77
2022/06/06 01:29:10;;;;;;;24.40;14.90;;;14.10;86.50;;;;;;5009992;28;20047;-77
2022/06/06 01:31:39;;;;;;;21.90;14.15;;;14.10;86.50;;;;;;4999090;28;20050;-77
2022/06/06 01:34:08;;;;;;;21.40;14.60;;;14.10;86.50;;;;;;4999496;28;20040;-77
2022/06/06 01:36:36;;;;;;;20.48;15.05;;;14.10;86.50;;;;;;4996729;28;20038;-77
2022/06/06 01:39:06;;;;;;;23.60;13.82;;;14.00;86.60;;;;;;4997557;28;20060;-77
2022/06/06 01:41:37;;;;;;;19.67;13.13;;;13.90;86.60;;;;;;5005047;28;20486;-77
2022/06/06 01:44:40;;;;;;;20.50;12.75;;;13.90;86.60;;;;;;5003463;28;20125;-77
2022/06/06 01:47:11;;;;;;;19.73;12.05;;;13.80;86.60;;;;;;5001280;28;20052;-77
2022/06/06 01:49:39;;;;;;;17.58;10.88;;;13.80;86.50;;;;;;4997744;28;20038;-76
2022/06/06 01:52:10;;;;;;;17.63;10.27;;;13.70;86.40;;;;;;5005490;28;20040;-77
2022/06/06 01:54:36;;;;;;;14.30;9.77;;;13.70;86.30;;;;;;5001006;28;20030;-76
2022/06/06 01:57:04;;;;;;;15.40;8.82;;;13.70;86.30;;;;;;5003660;28;20375;-76
2022/06/06 01:59:30;;;;;;;12.48;8.27;;;13.60;86.00;;;;;;4999971;28;20053;-78
2022/06/06 02:01:56;;;;;;;13.50;7.80;;;13.70;86.00;;;;;;5001297;28;20037;-78
2022/06/06 02:04:22;;;;;;;13.85;7.88;;;13.60;85.90;;;;;;5004396;28;20043;-77
2022/06/06 02:06:47;;;;;;;14.20;7.68;;;13.60;86.10;;;;;;5014508;28;20041;-77
2022/06/06 02:09:13;;;;;;;12.90;7.50;;;13.60;86.00;;;;;;5025070;28;20069;-77
2022/06/06 02:11:39;;;;;;;12.07;6.60;;;13.60;85.80;;;;;;5016262;28;20041;-77
2022/06/06 02:14:05;;;;;;;11.70;6.70;;;13.50;86.00;;;;;;5014468;28;20045;-77
2022/06/06 02:16:31;;;;;;;12.15;6.03;;;13.40;86.00;;;;;;5006359;28;20091;-77
2022/06/06 02:18:56;;;;;;;11.48;6.03;;;13.40;85.90;;;;;;5008562;28;20054;-78
2022/06/06 02:21:22;;;;;;;10.23;5.53;;;13.30;85.80;;;;;;5005128;28;20045;-77
2022/06/06 02:23:48;;;;;;;11.23;6.38;;;13.30;85.80;;;;;;5005703;28;20041;-77
2022/06/06 02:26:15;;;;;;;14.20;5.90;;;13.30;85.80;;;;;;5005649;28;20068;-77
2022/06/06 02:28:41;;;;;;;10.57;5.55;;;13.30;85.80;;;;;;5009502;28;20056;-77
2022/06/06 02:31:08;;;;;;;8.90;5.15;;;13.20;85.90;;;;;;5009287;28;20042;-77
2022/06/06 02:33:35;;;;;;;12.30;5.93;;;13.20;86.00;;;;;;5004357;28;20481;-77
2022/06/06 02:36:01;;;;;;;11.18;6.15;;;13.20;86.00;;;;;;5017571;28;20107;-77
2022/06/06 02:38:27;;;;;;;9.25;5.65;;;13.10;86.10;;;;;;5013478;28;20436;-77
2022/06/06 02:40:53;;;;;;;9.60;5.20;;;13.10;86.00;;;;;;5011680;28;20029;-77
2022/06/06 02:43:21;;;;;;;9.95;5.65;;;13.10;86.20;;;;;;5008846;28;20437;-77
2022/06/06 02:45:50;;;;;;;8.48;5.28;;;13.10;86.30;;;;;;5010848;28;20035;-77
2022/06/06 02:48:16;;;;;;;9.32;5.78;;;13.10;85.90;;;;;;5007189;28;20050;-77
2022/06/06 02:50:42;;;;;;;8.68;5.68;;;13.10;85.90;;;;;;5016116;28;20041;-77
2022/06/06 02:53:08;;;;;;;9.95;5.43;;;13.10;85.90;;;;;;5005356;28;20038;-77
2022/06/06 02:55:34;;;;;;;10.32;5.53;;;13.00;86.00;;;;;;5014472;28;20030;-77
2022/06/06 02:58:01;;;;;;;10.95;5.63;;;13.00;86.10;;;;;;5011567;28;20141;-78
2022/06/06 03:00:30;;;;;;;8.00;5.72;;;13.00;86.40;;;;;;5013424;28;20133;-77
2022/06/06 03:06:40;;;;;;;13.98;5.82;;;12.90;86.50;;;;;;5001723;28;20053;-77
2022/06/06 03:09:15;;;;;;;12.50;5.70;;;12.90;86.50;;;;;;5000555;28;20119;-78
2022/06/06 03:11:54;;;;;;;7.95;5.22;;;12.90;86.60;;;;;;5006295;28;20446;-77
2022/06/06 03:14:23;;;;;;;8.52;5.45;;;12.90;86.70;;;;;;5022642;28;20323;-77
2022/06/06 03:23:40;;;;;;;9.75;5.45;;;12.80;87.20;;;;;;5020804;28;20369;-78
2022/06/06 03:26:13;;;;;;;13.82;6.07;;;12.80;87.30;;;;;;5010874;28;20500;-77
2022/06/06 03:29:07;;;;;;;14.52;6.40;;;12.80;87.40;;;;;;5005529;28;20489;-77
2022/06/06 03:31:55;;;;;;;9.90;5.38;;;12.80;87.40;;;;;;5016794;28;20062;-76
2022/06/06 03:34:45;;;;;;;9.65;6.70;;;12.80;87.60;;;;;;5005890;28;20093;-77
2022/06/06 03:37:39;;;;;;;10.57;6.85;;;12.80;87.60;;;;;;5010224;28;20037;-77
2022/06/06 03:40:08;;;;;;;9.70;5.97;;;12.80;87.70;;;;;;5003309;28;20073;-76
2022/06/06 03:42:48;;;;;;;17.33;7.32;;;12.80;87.80;;;;;;5011872;28;20382;-76
2022/06/06 03:45:26;;;;;;;13.20;8.63;;;12.80;87.70;;;;;;5007750;28;20050;-77
2022/06/06 03:48:16;;;;;;;11.15;8.15;;;12.80;87.90;;;;;;5008573;28;20033;-77
2022/06/06 03:51:19;;;;;;;13.82;9.55;;;12.80;87.80;;;;;;5009243;28;20034;-77
2022/06/06 03:54:26;;;;;;;12.93;8.80;;;12.80;87.90;;;;;;5007660;28;20033;-78
2022/06/06 03:57:13;;;;;;;13.88;9.27;;;12.90;87.90;;;;;;5007495;28;20037;-78
2022/06/06 03:59:41;;;;;;;14.57;8.80;;;12.90;87.90;;;;;;4999333;28;20116;-77
2022/06/06 04:02:09;;;;;;;13.27;9.68;;;13.00;87.90;;;;;;5004666;28;20382;-78
2022/06/06 04:04:34;;;;;;;13.35;9.68;;;12.90;88.00;;;;;;5007622;28;20476;-78
2022/06/06 04:07:02;;;;;;;14.40;9.80;;;13.00;88.00;;;;;;5006234;28;20034;-77
2022/06/06 04:09:29;;;;;;;13.43;9.45;;;13.00;88.10;;;;;;5000706;28;20034;-77
2022/06/06 04:12:07;;;;;;;12.55;9.40;;;13.10;88.10;;;;;;5005487;28;20061;-78
2022/06/06 04:15:09;;;;;;;14.45;9.40;;;13.10;87.90;;;;;;5003466;28;20398;-78
2022/06/06 04:17:50;;;;;;;15.00;9.70;;;13.10;87.90;;;;;;5001812;28;20109;-77
2022/06/06 04:21:10;;;;;;;14.15;9.88;;;13.10;87.90;;;;;;5014345;28;20045;-78
2022/06/06 04:24:20;;;;;;;14.30;9.85;;;13.30;87.80;;;;;;4986949;28;20366;-78
2022/06/06 04:27:09;;;;;;;14.23;10.60;;;13.40;87.60;;;;;;4977985;28;20056;-78
2022/06/06 04:30:00;;;;;;;20.63;10.95;;;13.40;87.40;;;;;;5005597;28;20034;-77
2022/06/06 04:33:07;;;;;;;13.77;9.85;;;13.40;87.60;;;;;;5007498;28;20098;-77
2022/06/06 04:36:20;;;;;;;14.18;9.68;;;13.60;87.40;;;;;;4959683;28;20070;-79
2022/06/06 04:39:05;;;;;;;15.65;10.35;;;13.70;87.20;;;;;;5005763;28;20143;-78
2022/06/06 04:41:37;;;;;;;;;;;13.80;86.60;;;;;;5008862;28;20038;-78
2022/06/06 04:44:20;;;;;;;15.85;9.15;;;13.90;86.50;;;;;;5010994;28;19917;-78
2022/06/06 04:46:59;;;;;;;12.65;9.10;;;14.10;86.10;;;;;;5010533;28;20053;-78
2022/06/06 04:49:29;;;;;;;14.25;9.40;;;14.10;85.60;;;;;;5001412;28;20058;-78
2022/06/06 04:51:57;;;;;;;13.00;8.48;;;14.10;85.10;;;;;;5020252;28;20374;-77
2022/06/06 04:54:25;;;;;;;12.93;9.00;;;14.20;84.90;;;;;;5005087;28;20056;-78
2022/06/06 04:56:52;;;;;;;14.43;8.40;;;14.10;84.80;;;;;;5009266;28;20069;-78
2022/06/06 04:59:19;;;;;;;15.05;8.13;;;14.10;84.90;;;;;;4998292;28;20115;-78
2022/06/06 05:01:45;;;;;;;10.48;7.90;;;14.10;84.80;;;;;;5007214;28;20097;-78
2022/06/06 05:04:11;;;;;;;11.32;7.38;;;14.10;84.70;;;;;;5005140;28;20461;-78
2022/06/06 05:07:11;;;;;;;12.15;7.82;;;14.10;84.80;;;;;;5008543;28;20035;-78
2022/06/06 05:09:55;;;;;;;13.98;7.07;;;14.20;84.60;;;;;;5004709;28;20038;-78
2022/06/06 05:12:27;;;;;;;10.95;6.88;;;14.90;83.50;;;;;;5002451;28;20042;-78
2022/06/06 05:15:24;;;;;;;12.40;6.53;;;16.50;79.30;;;;;;5008373;28;20033;-78
2022/06/06 05:18:19;;;;;;;10.00;5.55;;;18.00;72.10;;;;;;5007430;28;20032;-78
2022/06/06 05:20:57;;;;;;;7.80;4.95;;;19.40;66.80;;;;;;5005076;28;20037;-78
2022/06/06 05:24:11;;;;;;;9.10;5.18;;;20.30;62.20;;;;;;5002129;28;20041;-78
2022/06/06 05:26:46;;;;;;;9.23;4.65;;;21.10;61.00;;;;;;4965343;28;20074;-78
2022/06/06 05:29:43;;;;;;;10.75;5.60;;;21.50;57.70;;;;;;5003773;28;20042;-78
2022/06/06 05:32:36;;;;;;;7.78;4.75;;;21.70;56.40;;;;;;4999291;28;20133;-78
2022/06/06 05:35:40;;;;;;;7.25;4.47;;;21.40;57.80;;;;;;4999638;28;20062;-79
2022/06/06 05:38:34;;;;;;;9.02;4.95;;;21.80;56.60;;;;;;4953017;28;20046;-79
2022/06/06 05:41:12;;;;;;;;;;;21.90;57.40;;;;;;5010013;28;20071;-79
2022/06/06 05:43:49;;;;;;;9.93;4.85;;;22.50;54.50;;;;;;4999976;28;19928;-79
2022/06/06 05:46:52;;;;;;;8.48;4.65;;;22.40;55.40;;;;;;5000546;28;20071;-79
2022/06/06 05:49:33;;;;;;;8.48;4.88;;;21.90;56.00;;;;;;5002507;28;20540;-79
2022/06/06 05:52:32;;;;;;;11.02;4.88;;;21.50;56.40;;;;;;5004975;28;20129;-78
2022/06/06 05:55:17;;;;;;;7.38;4.40;;;20.80;59.10;;;;;;5004153;28;20124;-78
2022/06/06 05:58:00;;;;;;;7.82;4.50;;;19.40;63.30;;;;;;5002801;28;20061;-78
2022/06/06 06:00:44;;;;;;;10.43;4.85;;;18.10;67.20;;;;;;5003589;28;20429;-78
2022/06/06 06:03:25;;;;;;;8.95;4.60;;;17.70;69.80;;;;;;5007517;28;20383;-75
2022/06/06 06:06:08;;;;;;;9.43;4.90;;;17.20;71.00;;;;;;5019438;28;20116;-73
2022/06/06 06:08:59;;;;;;;10.10;4.53;;;16.80;72.50;;;;;;5008590;28;20152;-73
2022/06/06 06:11:34;;;;;;;8.70;5.15;;;16.50;74.50;;;;;;4998613;28;20076;-74
2022/06/06 06:14:11;;;;;;;9.57;5.28;;;16.30;75.00;;;;;;5010028;28;20034;-77
2022/06/06 06:16:47;;;;;;;8.52;5.03;;;16.30;75.30;;;;;;5000982;28;20847;-74
2022/06/06 06:19:17;;;;;;;9.10;5.35;;;16.40;75.60;;;;;;5005572;28;20129;-74
2022/06/06 06:21:46;;;;;;;9.82;5.57;;;16.30;75.90;;;;;;5013728;28;20483;-74
2022/06/06 06:24:18;;;;;;;9.23;4.88;;;16.50;75.90;;;;;;5008157;28;20112;-75
2022/06/06 06:26:47;;;;;;;10.32;4.22;;;16.70;75.20;;;;;;5008242;28;20052;-76
2022/06/06 06:29:13;;;;;;;10.45;4.72;;;17.00;74.30;;;;;;5009242;28;20038;-74
2022/06/06 06:31:38;;;;;;;8.13;4.30;;;17.10;73.70;;;;;;5006950;28;20049;-75
2022/06/06 06:34:28;;;;;;;6.70;3.70;;;17.00;72.20;;;;;;4997423;28;20041;-74
2022/06/06 06:37:06;;;;;;;7.60;4.20;;;16.80;72.50;;;;;;5001535;28;20035;-73
2022/06/06 06:39:40;;;;;;;5.70;3.25;;;17.00;72.60;;;;;;5000101;28;20052;-74
2022/06/06 06:42:08;;;;;;;7.35;3.47;;;16.90;72.80;;;;;;5000181;28;20030;-73
2022/06/06 06:44:39;;;;;;;7.63;2.80;;;16.90;72.70;;;;;;5000467;28;20057;-78
2022/06/06 06:47:17;;;;;;;6.03;3.13;;;17.20;72.70;;;;;;5004884;28;20042;-75
2022/06/06 06:49:50;;;;;;;6.25;3.13;;;17.10;72.20;;;;;;4996353;28;20042;-75
2022/06/06 06:52:59;;;;;;;10.25;3.50;;;17.00;72.10;;;;;;4999257;28;20044;-74
2022/06/06 06:56:03;;;;;;;6.80;2.88;;;16.60;73.00;;;;;;5007933;28;20044;-73
2022/06/06 06:58:43;;;;;;;8.20;3.22;;;16.60;73.30;;;;;;5000725;28;20036;-73
2022/06/06 07:01:16;;;;;;;6.72;3.20;;;17.10;72.00;;;;;;5003577;28;20046;-74
2022/06/06 07:09:51;;;;;;;9.82;3.50;;;16.80;73.00;;;;;;5001428;28;20056;-73
2022/06/06 07:12:43;;;;;;;7.27;3.43;;;16.70;72.30;;;;;;4999729;28;20133;-74
2022/06/06 07:15:36;;;;;;;6.70;3.15;;;16.80;73.50;;;;;;5009263;28;20375;-77
2022/06/06 07:18:04;;;;;;;8.32;3.60;;;17.30;72.50;;;;;;4999089;28;20038;-75
2022/06/06 07:20:32;;;;;;;6.00;3.00;;;17.40;71.70;;;;;;4988771;28;20050;-74
2022/06/06 07:23:04;;;;;;;10.52;3.80;;;17.70;70.50;;;;;;5008976;28;20517;-75
2022/06/06 07:25:37;;;;;;;7.10;3.72;;;18.00;70.30;;;;;;5008956;28;20155;-74
2022/06/06 07:28:04;;;;;;;9.70;3.80;;;17.80;69.00;;;;;;5005217;28;20065;-75
2022/06/06 07:30:38;;;;;;;6.15;2.80;;;17.80;69.40;;;;;;5014370;28;20041;-74
2022/06/06 07:33:18;;;;;;;7.15;3.25;;;18.00;69.90;;;;;;4999064;28;20477;-73
2022/06/06 07:36:01;;;;;;;7.28;3.50;;;18.30;68.80;;;;;;5003123;28;20121;-76
2022/06/06 07:38:54;;;;;;;6.97;3.22;;;18.10;68.00;;;;;;5002866;28;20045;-78
2022/06/06 07:41:37;;;;;;;9.82;4.28;;;18.00;69.10;;;;;;4997799;28;20065;-76
2022/06/06 07:44:10;;;;;;;8.07;3.72;;;17.80;70.00;;;;;;5007554;28;20119;-75
2022/06/06 07:47:00;;;;;;;7.80;3.35;;;17.60;69.70;;;;;;5001875;28;20121;-76
2022/06/06 07:49:50;;;;;;;9.70;3.65;;;18.00;69.30;;;;;;4968458;28;20042;-74
2022/06/06 07:52:28;;;;;;;7.65;3.42;;;18.20;68.70;;;;;;4999509;28;20033;-78
2022/06/06 07:55:16;;;;;;;6.80;3.53;;;18.20;68.70;;;;;;5012855;28;20042;-75
2022/06/06 07:58:03;;;;;;;7.72;3.03;;;18.60;67.80;;;;;;4994261;28;20038;-78
2022/06/06 08:00:30;;;;;;;7.32;2.80;;;18.40;67.30;;;;;;5025511;28;20126;-74
2022/06/06 08:03:09;;;;;;;9.52;3.15;;;18.20;67.20;;;;;;4999451;28;20482;-72
2022/06/06 08:05:38;;;;;;;8.52;2.67;;;18.10;67.60;;;;;;4995621;28;20037;-73
2022/06/06 08:08:38;;;;;;;5.75;2.60;;;17.80;68.40;;;;;;4992630;28;20134;-75
2022/06/06 08:11:25;;;;;;;6.75;2.47;;;17.60;68.80;;;;;;4996017;28;20129;-75
2022/06/06 08:14:00;;;;;;;6.97;2.30;;;17.60;69.40;;;;;;5005072;28;20038;-74
2022/06/06 08:16:40;;;;;;;4.78;2.35;;;17.70;68.20;;;;;;4998563;28;20045;-73
2022/06/06 08:19:15;;;;;;;5.65;2.58;;;17.50;68.70;;;;;;4996707;28;20046;-75
2022/06/06 08:21:46;;;;;;;7.57;2.85;;;17.70;67.90;;;;;;4997475;28;20046;-75
2022/06/06 08:24:41;;;;;;;4.88;2.30;;;18.00;67.90;;;;;;5000176;28;20461;-74
2022/06/06 08:27:10;;;;;;;7.43;2.70;;;18.60;66.00;;;;;;4998363;28;20490;-77
2022/06/06 08:29:39;;;;;;;9.30;3.10;;;19.00;64.40;;;;;;5004471;28;20038;-75
2022/06/06 08:32:05;;;;;;;8.00;2.58;;;19.40;63.60;;;;;;5002461;28;20048;-75
2022/06/06 08:34:34;;;;;;;5.82;2.00;;;19.80;62.50;;;;;;4998968;28;20060;-77
2022/06/06 08:37:37;;;;;;;8.20;3.00;;;19.70;61.60;;;;;;5000553;28;20046;-74
2022/06/06 08:40:21;;;;;;;7.90;2.38;;;19.40;63.00;;;;;;4994844;28;20121;-73
2022/06/06 08:43:03;;;;;;;5.95;2.15;;;18.60;64.40;;;;;;4997533;28;20041;-74
2022/06/06 08:45:28;;;;;;;5.97;2.10;;;18.80;64.60;;;;;;5002117;28;20033;-74
2022/06/06 08:48:28;;;;;;;8.73;2.42;;;19.20;64.50;;;;;;4998075;28;20429;-74
2022/06/06 08:51:29;;;;;;;5.93;2.05;;;19.50;63.50;;;;;;4995478;28;20496;-74
2022/06/06 08:54:07;;;;;;;6.25;1.80;;;19.30;64.10;;;;;;4991449;28;20105;-74
2022/06/06 08:57:06;;;;;;;3.60;1.55;;;19.90;61.80;;;;;;4993519;28;20045;-76
2022/06/06 08:59:57;;;;;;;7.30;2.25;;;20.10;59.50;;;;;;4998675;28;20308;-74
2022/06/06 09:02:41;;;;;;;8.80;2.45;;;19.60;59.70;;;;;;4998711;28;20038;-74
2022/06/06 09:05:26;;;;;;;4.97;1.73;;;19.10;61.60;;;;;;5004509;28;20038;-74
2022/06/06 09:08:27;;;;;;;7.80;2.40;;;19.00;63.20;;;;;;5007775;28;20034;-73
2022/06/06 09:11:02;;;;;;;6.53;2.00;;;19.10;61.30;;;;;;4984273;28;20058;-76
2022/06/06 09:13:59;;;;;;;7.40;1.70;;;19.80;60.70;;;;;;5003988;28;20428;-75
2022/06/06 09:16:42;;;;;;;9.07;1.95;;;20.10;58.80;;;;;;5000200;28;20026;-76
2022/06/06 09:19:39;;;;;;;5.32;1.75;;;19.50;60.20;;;;;;4996264;28;20129;-73
2022/06/06 09:22:04;;;;;;;5.97;1.70;;;19.80;59.40;;;;;;4993000;28;20042;-74
2022/06/06 09:25:09;;;;;;;5.15;2.05;;;20.00;59.80;;;;;;5002811;28;20038;-75
2022/06/06 09:28:13;;;;;;;5.07;1.85;;;20.30;59.50;;;;;;5001226;28;20050;-78
2022/06/06 09:31:06;;;;;;;5.70;1.80;;;20.40;58.50;;;;;;4996481;28;20053;-77
2022/06/06 09:33:44;;;;;;;7.00;1.88;;;20.10;59.10;;;;;;5004459;28;20041;-77
2022/06/06 09:36:23;;;;;;;7.35;2.30;;;19.70;60.70;;;;;;4998765;28;20161;-76
2022/06/06 09:39:01;;;;;;;8.68;1.90;;;19.10;61.50;;;;;;4997029;28;20042;-80
2022/06/06 09:41:36;;;;;;;5.20;1.88;;;19.00;60.50;;;;;;5010131;28;20542;-78
2022/06/06 09:44:32;;;;;;;8.95;2.70;;;19.20;60.60;;;;;;4993776;28;20042;-80
2022/06/06 09:47:35;;;;;;;4.90;2.10;;;19.90;59.50;;;;;;5001668;28;20044;-80
2022/06/06 09:50:38;;;;;;;3.97;1.70;;;20.00;60.00;;;;;;5003681;28;20044;-82
2022/06/06 09:53:26;;;;;;;3.33;2.08;;;20.20;58.90;;;;;;5000381;28;20042;-80
2022/06/06 09:59:06;;;;;;;3.47;1.60;;;20.20;57.40;;;;;;5000553;28;20045;-78
2022/06/06 10:02:05;;;;;;;4.80;1.77;;;19.90;58.90;;;;;;5004425;28;20262;-73
2022/06/06 10:04:53;;;;;;;4.72;1.83;;;19.40;59.60;;;;;;5010967;28;20504;-78
2022/06/06 10:07:46;;;;;;;5.20;1.63;;;19.20;61.20;;;;;;5022463;28;20126;-78
2022/06/06 10:10:32;;;;;;;4.60;1.98;;;19.10;61.90;;;;;;5007429;28;20128;-78
2022/06/06 10:13:20;;;;;;;2.88;1.65;;;19.30;61.10;;;;;;5002549;28;20045;-80
2022/06/06 10:16:03;;;;;;;3.25;1.70;;;19.50;59.40;;;;;;5002067;28;20098;-78
2022/06/06 10:19:10;;;;;;;2.83;1.48;;;19.10;58.30;;;;;;4999819;28;20037;-79
2022/06/06 10:21:58;;;;;;;5.40;1.95;;;18.70;58.40;;;;;;4973436;28;20054;-78
2022/06/06 10:24:51;;;;;;;6.13;1.70;;;18.40;59.00;;;;;;5000965;28;20036;-77
2022/06/06 10:27:47;;;;;;;6.45;2.00;;;18.20;60.10;;;;;;4992083;28;20038;-76
2022/06/06 10:30:21;;;;;;;3.47;1.88;;;18.00;61.80;;;;;;4991716;28;20054;-76
2022/06/06 10:33:06;;;;;;;5.18;2.13;;;17.90;62.50;;;;;;4996835;28;20045;-76
2022/06/06 10:36:12;;;;;;;3.70;1.88;;;17.90;62.90;;;;;;4996942;28;20038;-78
2022/06/06 10:38:56;;;;;;;6.47;2.05;;;17.90;63.10;;;;;;4998118;28;20046;-76
2022/06/06 10:41:34;;;;;;;3.55;2.00;;;18.30;63.40;;;;;;4996588;28;20044;-76
2022/06/06 10:44:24;;;;;;;4.40;2.00;;;18.60;62.00;;;;;;4995092;28;20050;-75
2022/06/06 10:47:25;;;;;;;3.80;1.92;;;18.60;62.40;;;;;;4995181;28;20044;-78
2022/06/06 10:50:09;;;;;;;4.95;1.95;;;18.80;60.90;;;;;;4998168;28;20357;-81
2022/06/06 10:52:47;;;;;;;;;;;18.80;61.10;;;;;;4992643;28;20061;-76
2022/06/06 10:55:45;;;;;;;6.38;2.13;;;18.80;61.70;;;;;;4997540;28;19922;-79
2022/06/06 10:58:25;;;;;;;8.18;2.30;;;18.70;61.10;;;;;;4998599;28;20437;-79
2022/06/06 11:01:24;;;;;;;6.72;2.05;;;18.60;62.20;;;;;;4996607;28;20054;-79
2022/06/06 11:04:14;;;;;;;6.28;2.33;;;18.60;61.70;;;;;;4980688;28;20121;-76
2022/06/06 11:07:05;;;;;;;5.60;2.40;;;18.40;62.50;;;;;;4998449;28;20054;-80
2022/06/06 11:09:45;;;;;;;4.75;2.03;;;18.10;63.30;;;;;;5020270;28;20050;-78
2022/06/06 11:12:29;;;;;;;6.90;2.35;;;18.20;63.20;;;;;;5000969;28;20050;-76
2022/06/06 11:14:58;;;;;;;6.72;2.40;;;18.40;62.60;;;;;;4998475;28;20081;-76
2022/06/06 11:17:52;;;;;;;7.05;2.25;;;18.60;62.70;;;;;;4996923;28;20651;-77
2022/06/06 11:20:43;;;;;;;6.72;2.10;;;18.60;62.90;;;;;;5000547;28;20038;-80
2022/06/06 11:23:18;;;;;;;6.57;2.15;;;18.80;62.30;;;;;;4995097;28;20041;-78
2022/06/06 11:26:13;;;;;;;7.47;2.20;;;19.10;61.50;;;;;;5031657;28;20390;-77
2022/06/06 11:29:04;;;;;;;5.72;1.92;;;19.20;61.50;;;;;;4995505;28;20038;-78
2022/06/06 11:31:54;;;;;;;5.80;1.77;;;19.20;60.70;;;;;;5000563;28;20030;-79
2022/06/06 11:34:51;;;;;;;5.53;2.17;;;19.10;60.80;;;;;;5003426;28;20048;-77
2022/06/06 11:37:34;;;;;;;5.80;1.77;;;19.20;60.50;;;;;;5004437;28;20037;-75
2022/06/06 11:40:35;;;;;;;5.10;1.75;;;19.30;59.60;;;;;;5009361;28;20054;-74
2022/06/06 11:43:22;;;;;;;5.70;2.03;;;19.10;60.70;;;;;;5024692;28;20439;-80
2022/06/06 11:46:22;;;;;;;5.47;1.90;;;19.20;61.20;;;;;;4998734;28;20086;-74
2022/06/06 11:49:22;;;;;;;6.63;1.80;;;19.30;60.80;;;;;;4989223;28;20394;-77
2022/06/06 11:52:06;;;;;;;4.03;1.73;;;19.50;60.60;;;;;;5001916;28;20128;-77
2022/06/06 11:54:38;;;;;;;7.50;1.98;;;19.50;59.90;;;;;;4996978;28;20116;-78
2022/06/06 11:57:29;;;;;;;7.30;2.35;;;19.10;61.20;;;;;;4997162;28;20038;-77
2022/06/06 12:00:21;;;;;;;5.93;2.13;;;19.30;59.80;;;;;;4997590;28;20054;-78
2022/06/06 12:02:57;;;;;;;6.85;1.80;;;19.40;60.60;;;;;;4993598;28;20041;-78
2022/06/06 12:05:48;;;;;;;6.93;1.90;;;19.40;59.70;;;;;;5006372;28;20191;-77
2022/06/06 12:08:42;;;;;;;3.80;1.88;;;19.40;60.60;;;;;;5005687;28;20049;-78
2022/06/06 12:11:26;;;;;;;11.30;2.28;;;19.20;61.10;;;;;;5004464;28;20026;-78
2022/06/06 12:14:01;;;;;;;4.82;1.85;;;18.80;61.40;;;;;;5011025;28;20041;-77
2022/06/06 12:16:35;;;;;;;;;;;18.80;61.60;;;;;;5009181;28;20046;-75
2022/06/06 12:19:38;;;;;;;5.43;2.28;;;18.60;62.20;;;;;;4993339;28;19968;-79
2022/06/06 12:22:15;;;;;;;6.97;2.03;;;18.60;63.90;;;;;;5002879;28;20046;-78
2022/06/06 12:25:15;;;;;;;7.72;2.03;;;18.60;64.00;;;;;;5005323;28;20041;-76
2022/06/06 12:28:33;;;;;;;5.70;2.28;;;18.90;63.00;;;;;;5003686;28;20454;-78
2022/06/06 12:31:12;;;;;;;6.00;2.22;;;19.20;61.60;;;;;;4966741;28;20374;-81
2022/06/06 12:34:09;;;;;;;8.50;2.10;;;19.40;61.30;;;;;;5010508;28;20586;-78
2022/06/06 12:37:07;;;;;;;7.88;2.00;;;19.40;61.00;;;;;;5014884;28;20034;-78
2022/06/06 12:40:15;;;;;;;5.38;1.80;;;19.40;60.70;;;;;;5005952;28;20112;-79
2022/06/06 12:42:43;;;;;;;6.53;1.90;;;19.10;61.00;;;;;;5004311;28;20441;-78
2022/06/06 12:45:43;;;;;;;5.70;2.22;;;19.20;61.20;;;;;;5007246;28;20493;-77
2022/06/06 12:48:49;;;;;;;6.40;2.17;;;19.00;62.40;;;;;;4999553;28;20037;-77
2022/06/06 12:51:18;;;;;;;8.48;2.20;;;18.80;62.90;;;;;;5007402;28;20050;-77
2022/06/06 12:54:18;;;;;;;5.93;2.20;;;18.80;62.50;;;;;;5007079;28;20187;-79
2022/06/06 12:57:06;;;;;;;6.18;1.92;;;18.70;63.80;;;;;;5005842;28;20034;-77
2022/06/06 13:00:00;;;;;;;5.20;1.90;;;18.80;63.50;;;;;;4998295;28;20100;-78
2022/06/06 13:02:29;;;;;;;7.03;2.20;;;19.00;62.00;;;;;;5002417;28;20030;-78
2022/06/06 13:05:02;;;;;;;7.57;2.03;;;18.90;61.90;;;;;;5001632;28;20493;-78
2022/06/06 13:07:59;;;;;;;8.38;2.05;;;18.60;62.30;;;;;;5004110;28;20038;-79
2022/06/06 13:10:56;;;;;;;6.88;2.20;;;18.60;62.80;;;;;;5013425;28;20065;-76
2022/06/06 13:13:44;;;;;;;5.97;1.92;;;18.90;63.10;;;;;;4997969;28;20053;-79
2022/06/06 13:16:28;;;;;;;6.75;2.35;;;18.90;62.30;;;;;;5006581;28;20596;-81
2022/06/06 13:19:06;;;;;;;5.72;2.20;;;19.00;62.70;;;;;;5002430;28;20521;-78
2022/06/06 13:21:40;;;;;;;6.60;2.20;;;19.00;61.70;;;;;;4999675;28;20041;-77
2022/06/06 13:24:09;;;;;;;8.75;2.10;;;18.80;62.70;;;;;;5001288;28;20037;-78
2022/06/06 13:26:50;;;;;;;5.90;2.40;;;18.80;62.80;;;;;;4998560;28;20042;-80
2022/06/06 13:29:27;;;;;;;6.38;2.38;;;18.70;63.20;;;;;;5007771;28;20045;-81
2022/06/06 13:32:18;;;;;;;7.32;2.50;;;18.70;63.60;;;;;;5008081;28;20034;-80
2022/06/06 13:34:49;;;;;;;5.00;2.20;;;18.90;63.20;;;;;;5008767;28;20029;-80
2022/06/06 13:37:43;;;;;;;6.50;2.33;;;19.10;63.90;;;;;;5003607;28;20044;-81
2022/06/06 13:40:27;;;;;;;7.40;2.42;;;19.00;63.20;;;;;;4999542;28;20517;-78
2022/06/06 13:43:22;;;;;;;4.25;2.05;;;18.90;62.80;;;;;;4996698;28;20615;-80
2022/06/06 13:46:11;;;;;;;12.20;2.75;;;18.60;64.00;;;;;;5044747;28;20641;-79
2022/06/06 13:48:55;;;;;;;7.47;2.22;;;18.30;64.30;;;;;;5000462;28;20042;-78
2022/06/06 13:51:42;;;;;;;5.77;1.93;;;18.60;64.80;;;;;;4999457;28;20470;-79
2022/06/06 13:54:25;;;;;;;6.10;2.30;;;19.00;63.50;;;;;;4997381;28;20293;-80
2022/06/06 13:57:08;;;;;;;4.82;1.95;;;19.10;63.40;;;;;;4995417;28;20041;-80
2022/06/06 13:59:58;;;;;;;7.32;2.28;;;19.10;62.30;;;;;;4997967;28;20054;-79
2022/06/06 14:02:53;;;;;;;11.07;2.38;;;19.10;61.40;;;;;;4993170;28;20521;-78
2022/06/06 14:05:41;;;;;;;6.60;2.10;;;19.20;61.80;;;;;;5020119;28;20030;-77
2022/06/06 14:08:15;;;;;;;8.27;2.13;;;19.40;61.30;;;;;;5002935;28;20038;-78
2022/06/06 14:10:53;;;;;;;5.75;2.38;;;19.60;62.10;;;;;;5005655;28;20125;-77
2022/06/06 14:13:39;;;;;;;7.82;2.78;;;19.40;62.30;;;;;;5000308;28;20493;-81
2022/06/06 14:16:27;;;;;;;6.90;2.45;;;19.30;62.90;;;;;;5006699;28;20041;-80
2022/06/06 14:18:58;;;;;;;6.97;2.40;;;19.40;62.90;;;;;;4997233;28;20053;-81
2022/06/06 14:21:31;;;;;;;7.22;2.25;;;19.50;62.50;;;;;;4991085;28;20033;-82